Time;durP1;ratioP1;P1;durP2;ratioP2;P2;SDS_P1;SDS_P2;PMS_P1;PMS_P2;Temp;Humidity;BMP_temperature;BMP_pressure;BME280_temperature;BME280_humidity;BME280_pressure;Samples;Min_cycle;Max_cycle;Signal;HPM_P1;HPM_P2
2023/05/12 00:00:22;;;;;;;3.50;3.13;;;;;;;13.91;81.55;98930.62;7465678;39;20254;31
2023/05/12 00:05:43;;;;;;;3.97;3.37;;;;;;;13.88;81.82;98926.44;7421649;39;20345;31
2023/05/12 00:11:18;;;;;;;4.87;3.37;;;;;;;13.89;81.74;98921.88;7404555;39;20258;31
2023/05/12 00:16:37;;;;;;;3.80;2.80;;;;;;;13.96;82.13;98911.91;7465972;39;21222;31
2023/05/12 00:22:11;;;;;;;4.55;3.60;;;;;;;14.00;81.63;98918.63;7393328;39;20251;31
2023/05/12 00:32:49;;;;;;;5.47;3.40;;;;;;;13.90;81.73;98908.12;7403292;39;20309;31
2023/05/12 00:43:26;;;;;;;5.00;3.55;;;;;;;13.77;83.02;98901.75;7342130;39;20414;31
2023/05/12 00:54:07;;;;;;;4.77;4.00;;;;;;;13.67;83.13;98891.25;7459932;38;20272;31
2023/05/12 01:04:46;;;;;;;5.80;3.70;;;;;;;13.68;83.38;98886.66;7494474;38;21192;31
2023/05/12 01:10:32;;;;;;;5.65;3.70;;;;;;;13.65;83.73;98884.31;7442225;39;20257;31
2023/05/12 01:16:04;;;;;;;5.90;3.90;;;;;;;13.72;83.04;98888.78;7459063;39;21356;31
2023/05/12 01:26:42;;;;;;;3.40;2.90;;;;;;;13.79;82.89;98883.41;7406961;39;20280;31
2023/05/12 01:37:19;;;;;;;4.63;2.77;;;;;;;13.85;83.02;98882.66;7397881;39;20407;31
2023/05/12 01:42:47;;;;;;;6.43;2.80;;;;;;;13.81;82.88;98873.25;7448105;38;20378;31
2023/05/12 01:53:27;;;;;;;3.83;2.97;;;;;;;13.70;83.27;98884.59;7465085;39;20266;31
2023/05/12 01:59:01;;;;;;;6.85;2.60;;;;;;;13.70;82.81;98890.00;7400364;39;20251;31
2023/05/12 02:04:37;;;;;;;3.50;2.80;;;;;;;13.74;83.11;98886.72;7425541;39;21178;31
2023/05/12 02:09:57;;;;;;;5.65;2.90;;;;;;;13.71;82.89;98889.81;7432435;39;20270;31
2023/05/12 02:15:31;;;;;;;5.50;2.90;;;;;;;13.62;83.45;98882.84;7482333;38;20391;31
2023/05/12 02:20:49;;;;;;;3.35;3.05;;;;;;;13.55;83.19;98887.38;7463344;39;21247;31
2023/05/12 02:26:21;;;;;;;4.07;2.97;;;;;;;13.43;83.88;98875.34;7441344;39;20554;31
2023/05/12 02:31:58;;;;;;;4.60;3.30;;;;;;;13.34;83.94;98879.25;7442838;39;20250;31
2023/05/12 02:37:17;;;;;;;3.20;2.60;;;;;;;13.25;83.21;98878.50;7443596;39;20267;31
2023/05/12 02:42:52;;;;;;;6.00;2.60;;;;;;;13.26;82.97;98885.59;7419471;39;20247;31
2023/05/12 02:48:23;;;;;;;3.40;2.70;;;;;;;13.27;84.12;98881.88;7380708;39;20259;31
2023/05/12 02:53:55;;;;;;;4.90;3.40;;;;;;;13.21;83.52;98879.09;7420384;39;20248;31
2023/05/12 02:59:27;;;;;;;5.50;3.20;;;;;;;13.11;84.07;98875.84;7335732;39;20248;31
2023/05/12 03:05:01;;;;;;;3.10;2.80;;;;;;;13.05;84.20;98866.59;7382733;39;21279;31
2023/05/12 03:10:36;;;;;;;5.30;3.20;;;;;;;13.14;83.50;98870.06;7399459;39;20293;31
2023/05/12 03:16:11;;;;;;;3.07;2.77;;;;;;;13.25;83.25;98878.50;7370374;39;21237;31
2023/05/12 03:21:44;;;;;;;3.50;3.15;;;;;;;13.19;83.38;98875.75;7359314;39;20341;31
2023/05/12 03:27:05;;;;;;;4.00;3.40;;;;;;;13.08;83.87;98880.56;7378070;39;20697;31
2023/05/12 03:32:39;;;;;;;5.50;3.50;;;;;;;12.95;84.67;98876.88;7377487;39;20732;31
2023/05/12 03:38:15;;;;;;;3.93;3.00;;;;;;;12.92;83.97;98878.09;7378376;39;20258;31
2023/05/12 03:43:47;;;;;;;5.55;3.05;;;;;;;13.00;83.77;98878.00;7377820;39;20332;31
2023/05/12 03:49:08;;;;;;;4.05;3.10;;;;;;;13.09;83.93;98874.16;7474159;39;20381;31
2023/05/12 03:54:45;;;;;;;6.30;3.40;;;;;;;13.07;84.03;98880.78;7467742;39;20504;31
2023/05/12 04:00:22;;;;;;;5.50;3.00;;;;;;;13.09;83.86;98882.25;7471211;39;20253;31
2023/05/12 04:05:57;;;;;;;3.33;3.03;;;;;;;13.01;84.40;98868.84;7445256;39;20253;31
2023/05/12 04:11:34;;;;;;;3.80;3.30;;;;;;;12.95;84.41;98863.34;7494278;38;20234;31
2023/05/12 04:17:10;;;;;;;3.83;2.90;;;;;;;12.99;84.59;98872.75;7474321;39;20248;31
2023/05/12 04:22:46;;;;;;;3.70;2.70;;;;;;;13.02;84.45;98869.69;7487566;39;20794;31
2023/05/12 04:28:19;;;;;;;4.30;2.80;;;;;;;13.09;84.14;98865.19;7489537;38;20849;31
2023/05/12 04:33:54;;;;;;;3.83;2.77;;;;;;;13.11;84.43;98876.69;7491910;38;20249;31
2023/05/12 04:39:26;;;;;;;3.60;3.10;;;;;;;13.04;85.07;98878.44;7442487;39;20250;31
2023/05/12 04:45:02;;;;;;;3.75;2.60;;;;;;;13.06;85.27;98879.94;7401304;39;21199;31
2023/05/12 04:50:21;;;;;;;3.70;3.00;;;;;;;13.17;85.31;98888.59;7201313;39;21244;31
2023/05/12 04:55:38;;;;;;;3.55;2.50;;;;;;;13.15;84.96;98888.81;7423543;39;21323;31
2023/05/12 05:01:12;;;;;;;5.00;3.20;;;;;;;13.16;85.17;98887.78;7466534;39;20373;31
2023/05/12 05:06:48;;;;;;;6.20;3.20;;;;;;;13.17;84.71;98892.16;7443269;39;20412;31
2023/05/12 05:12:09;;;;;;;5.07;3.30;;;;;;;13.17;85.79;98899.44;7452869;39;20245;31
2023/05/12 05:17:48;;;;;;;4.20;3.50;;;;;;;13.20;85.10;98899.91;7444437;39;20335;31
2023/05/12 05:23:02;;;;;;;4.10;3.70;;;;;;;13.28;85.59;98915.19;7397698;39;20288;31
2023/05/12 05:28:38;;;;;;;4.10;3.70;;;;;;;13.28;84.99;98910.63;7381174;39;20258;31
2023/05/12 05:34:09;;;;;;;5.53;3.80;;;;;;;13.29;85.16;98908.75;7409660;39;20258;31
2023/05/12 05:39:30;;;;;;;4.10;3.20;;;;;;;13.41;85.07;98918.87;7425596;39;20239;31
2023/05/12 05:44:50;;;;;;;4.20;3.80;;;;;;;13.44;85.40;98918.50;7438691;39;20269;31
2023/05/12 05:50:23;;;;;;;7.27;3.40;;;;;;;13.42;85.16;98919.72;7439977;39;21326;31
2023/05/12 05:55:58;;;;;;;5.15;3.70;;;;;;;13.38;85.88;98924.66;7441255;39;20263;31
2023/05/12 06:01:16;;;;;;;6.30;3.80;;;;;;;13.38;85.55;98921.97;7369479;39;20285;31
2023/05/12 06:06:49;;;;;;;4.23;3.77;;;;;;;13.42;85.69;98927.84;7342692;39;20262;31
2023/05/12 06:12:10;;;;;;;5.53;3.53;;;;;;;13.43;85.78;98932.22;7342236;39;20351;31
2023/05/12 06:17:44;;;;;;;4.20;3.80;;;;;;;13.53;85.88;98940.87;7382705;39;20266;31
2023/05/12 06:23:18;;;;;;;4.37;3.97;;;;;;;13.59;85.64;98942.00;7356269;39;21300;31
2023/05/12 06:28:53;;;;;;;5.47;4.50;;;;;;;13.66;86.04;98959.13;7396434;39;20250;31
2023/05/12 06:34:26;;;;;;;6.25;4.30;;;;;;;13.65;86.05;98943.91;7379292;39;21201;31
2023/05/12 06:39:59;;;;;;;4.80;4.10;;;;;;;13.58;87.01;98948.44;7403419;39;20395;31
2023/05/12 06:45:17;;;;;;;6.18;5.10;;;;;;;13.65;86.80;98958.28;7415587;39;20340;31
2023/05/12 06:50:52;;;;;;;8.30;5.65;;;;;;;13.71;86.65;98959.41;7410884;39;20269;31
2023/05/12 06:56:24;;;;;;;7.90;6.30;;;;;;;13.81;86.89;98954.50;7423793;39;20251;31
2023/05/12 07:01:46;;;;;;;10.80;7.30;;;;;;;13.86;86.51;98966.47;7461407;39;20257;31
2023/05/12 07:07:07;;;;;;;11.60;7.65;;;;;;;13.87;86.32;98962.69;7467878;39;20239;31
2023/05/12 07:12:42;;;;;;;8.37;7.43;;;;;;;13.87;86.72;98968.09;7451293;39;20234;31
2023/05/12 07:18:03;;;;;;;10.20;8.55;;;;;;;14.02;85.99;98961.78;7445824;39;20316;31
2023/05/12 07:23:38;;;;;;;9.30;7.70;;;;;;;14.08;85.53;98964.56;7447235;39;20242;31
2023/05/12 07:29:13;;;;;;;11.70;9.43;;;;;;;14.03;85.79;98967.03;7463857;39;21252;31
2023/05/12 07:34:48;;;;;;;11.40;9.70;;;;;;;14.04;84.91;98967.88;7426877;39;21082;31
2023/05/12 07:40:23;;;;;;;11.80;9.80;;;;;;;14.02;84.81;98967.22;7443318;39;20238;31
2023/05/12 07:45:58;;;;;;;12.60;10.45;;;;;;;14.01;85.23;98966.38;7408558;39;20337;31
2023/05/12 07:51:14;;;;;;;13.40;11.70;;;;;;;13.97;85.60;98962.38;7439839;39;20273;31
2023/05/12 07:56:34;;;;;;;14.60;11.95;;;;;;;13.97;85.72;98970.50;7462865;39;20313;31
2023/05/12 08:02:10;;;;;;;13.30;11.50;;;;;;;13.98;85.00;98969.47;7429672;39;21232;31
2023/05/12 08:07:42;;;;;;;14.45;11.70;;;;;;;14.10;85.57;98976.06;7377795;39;20301;31
2023/05/12 08:13:03;;;;;;;13.90;11.30;;;;;;;14.11;85.70;98975.03;7381377;39;20249;31
2023/05/12 08:18:39;;;;;;;13.65;10.80;;;;;;;14.07;86.13;98965.59;7378872;39;21284;31
2023/05/12 08:29:00;;;;;;;11.73;9.87;;;;;;;14.04;85.75;98974.09;7382774;39;20267;31
2023/05/12 08:39:34;;;;;;;12.20;10.25;;;;;;;14.04;86.25;98978.72;7407779;39;20262;31
2023/05/12 08:45:09;;;;;;;16.53;12.10;;;;;;;14.07;86.69;98981.03;7397833;39;20349;31
2023/05/12 08:50:44;;;;;;;18.60;13.65;;;;;;;14.10;86.31;98989.59;7364548;39;20351;31
2023/05/12 08:56:32;;;;;;;18.97;14.00;;;;;;;14.06;86.92;98987.47;7379469;39;20267;31
2023/05/12 09:07:12;;;;;;;18.13;13.87;;;;;;;14.18;86.85;98984.03;7484298;38;20242;31
2023/05/12 09:17:48;;;;;;;19.40;13.80;;;;;;;14.21;87.50;98986.38;7418262;39;20387;31
2023/05/12 09:28:27;;;;;;;17.37;13.97;;;;;;;14.26;87.46;98985.81;7452573;39;20270;31
2023/05/12 09:34:03;;;;;;;13.27;11.90;;;;;;;14.29;87.14;98988.94;7462541;39;20237;31
2023/05/12 09:39:38;;;;;;;12.37;10.53;;;;;;;14.38;87.36;98987.81;7488397;39;20308;31
2023/05/12 09:45:11;;;;;;;11.10;9.90;;;;;;;14.46;87.42;98994.97;7464267;39;20242;31
2023/05/12 09:50:45;;;;;;;11.55;10.30;;;;;;;14.52;86.61;98986.03;7426369;39;20403;31
2023/05/12 09:56:02;;;;;;;10.70;9.10;;;;;;;14.61;86.54;98981.31;7424126;39;20283;31
2023/05/12 10:01:34;;;;;;;11.57;10.37;;;;;;;14.63;86.73;98985.50;7462850;39;20358;31
2023/05/12 10:12:12;;;;;;;7.80;7.10;;;;;;;14.35;87.04;98993.59;7439423;39;20271;31
2023/05/12 10:22:52;;;;;;;5.28;4.78;;;;;;;14.21;88.10;98983.66;7437829;39;20433;31
2023/05/12 10:28:28;;;;;;;4.60;4.20;;;;;;;14.17;88.49;98990.50;7511472;38;20338;31
2023/05/12 10:34:07;;;;;;;5.50;5.00;;;;;;;14.15;88.27;98989.88;7470309;39;20250;31
2023/05/12 10:39:40;;;;;;;5.57;5.07;;;;;;;14.25;88.26;98990.38;7400587;39;20234;31
2023/05/12 10:45:13;;;;;;;7.33;5.97;;;;;;;14.41;87.42;98982.00;7420963;39;20239;31
2023/05/12 10:50:33;;;;;;;6.60;6.00;;;;;;;14.65;87.12;98974.44;7400471;39;20337;31
2023/05/12 10:56:06;;;;;;;8.35;6.05;;;;;;;14.92;86.81;98976.28;7400317;39;21271;31
2023/05/12 11:01:43;;;;;;;6.30;5.70;;;;;;;14.96;87.09;98983.00;7383474;39;20361;31
2023/05/12 11:07:14;;;;;;;5.50;5.00;;;;;;;15.12;84.93;98966.38;7512410;38;20263;31
2023/05/12 11:12:49;;;;;;;5.93;5.33;;;;;;;15.31;83.80;98968.34;7439155;39;20348;31
2023/05/12 11:18:25;;;;;;;5.47;4.97;;;;;;;15.58;82.95;98963.03;7439161;39;21353;31
2023/05/12 11:23:43;;;;;;;5.75;5.20;;;;;;;15.91;83.19;98972.13;7400563;39;20260;31
2023/05/12 11:29:19;;;;;;;7.60;5.47;;;;;;;15.86;82.12;98976.50;7430763;39;20247;31
2023/05/12 11:34:52;;;;;;;9.60;5.60;;;;;;;15.66;82.29;98971.03;7228356;39;20223;31
2023/05/12 11:40:28;;;;;;;6.85;4.90;;;;;;;15.55;81.76;98982.47;7380070;39;20243;31
2023/05/12 11:46:00;;;;;;;5.17;4.60;;;;;;;15.38;81.38;98989.25;7360539;39;20282;31
2023/05/12 11:51:33;;;;;;;5.20;4.70;;;;;;;15.18;81.47;98995.44;7405375;39;20346;31
2023/05/12 11:57:08;;;;;;;6.77;5.00;;;;;;;15.07;82.98;98997.88;7359032;39;20252;31
2023/05/12 12:02:44;;;;;;;6.20;5.60;;;;;;;14.99;83.85;99001.59;7395165;39;20292;31
2023/05/12 12:08:21;;;;;;;7.70;6.55;;;;;;;14.96;84.39;99007.44;7411089;39;20254;31
2023/05/12 12:13:56;;;;;;;8.20;6.30;;;;;;;14.92;85.20;99011.56;7441907;39;20348;31
2023/05/12 12:19:31;;;;;;;6.50;5.90;;;;;;;14.96;84.94;99017.44;7414155;39;20488;31
2023/05/12 12:25:05;;;;;;;9.00;7.60;;;;;;;14.91;86.03;99026.19;7403510;39;20555;31
2023/05/12 12:30:22;;;;;;;9.80;7.45;;;;;;;14.87;87.02;99031.16;7349287;39;21170;31
2023/05/12 12:35:42;;;;;;;9.40;7.55;;;;;;;14.84;86.63;99028.00;7400672;39;20395;31
2023/05/12 12:41:12;;;;;;;8.20;7.40;;;;;;;14.85;87.64;99032.41;7396021;39;20305;31
2023/05/12 12:51:51;;;;;;;9.35;8.35;;;;;;;15.06;86.90;99029.59;7382350;39;20977;31
2023/05/12 13:02:31;;;;;;;9.90;7.30;;;;;;;15.21;86.77;99024.06;7475943;38;20268;31
2023/05/12 13:07:52;;;;;;;9.23;7.03;;;;;;;15.35;86.54;99025.81;7493221;38;20256;31
2023/05/12 13:13:12;;;;;;;9.37;6.53;;;;;;;15.55;86.99;99015.06;7490041;38;20234;31
2023/05/12 13:18:46;;;;;;;8.63;7.77;;;;;;;15.69;85.51;99011.38;7510082;38;20253;31
2023/05/12 13:24:06;;;;;;;8.37;7.57;;;;;;;15.87;86.12;99022.50;7465421;39;20282;31
2023/05/12 13:29:41;;;;;;;9.00;6.60;;;;;;;15.91;86.15;99012.91;7459028;39;20286;31
2023/05/12 13:40:21;;;;;;;5.95;5.45;;;;;;;15.85;86.08;99008.25;7461801;39;21172;31
2023/05/12 13:45:39;;;;;;;6.27;5.53;;;;;;;16.02;84.93;99017.72;7386233;39;20391;31
2023/05/12 13:51:15;;;;;;;5.90;5.30;;;;;;;16.16;84.80;99019.44;7441416;39;21177;31
2023/05/12 13:56:47;;;;;;;5.97;5.43;;;;;;;16.31;85.08;99015.69;7355448;39;21303;31
2023/05/12 14:02:08;;;;;;;7.23;5.60;;;;;;;16.46;84.75;99027.19;7402371;39;20301;31
2023/05/12 14:07:25;;;;;;;6.25;5.50;;;;;;;16.50;83.53;99023.00;7369407;39;20276;31
2023/05/12 14:13:02;;;;;;;5.70;5.20;;;;;;;16.54;83.29;99021.56;7408844;39;21244;31
2023/05/12 14:18:34;;;;;;;6.30;5.23;;;;;;;16.51;81.85;99025.53;7422550;39;21265;31
2023/05/12 14:24:06;;;;;;;8.50;5.85;;;;;;;16.64;82.75;99025.56;7437772;39;20337;31
2023/05/12 14:29:40;;;;;;;6.73;6.10;;;;;;;16.50;81.62;99034.72;7420231;39;20267;31
2023/05/12 14:40:16;;;;;;;6.07;5.30;;;;;;;16.03;81.59;99038.44;7363497;39;20274;31
2023/05/12 14:45:53;;;;;;;6.40;5.30;;;;;;;15.94;82.40;99036.09;7406785;39;20249;31
2023/05/12 14:51:09;;;;;;;5.13;4.63;;;;;;;15.85;82.21;99050.91;7422516;39;21293;31
2023/05/12 14:56:29;;;;;;;7.37;4.90;;;;;;;15.75;82.63;99046.69;7443245;39;20341;31
2023/05/12 15:02:05;;;;;;;7.27;5.13;;;;;;;15.73;83.03;99040.66;7421406;39;20252;31
2023/05/12 15:13:09;;;;;;;5.95;4.55;;;;;;;15.78;83.92;99043.59;7420109;39;20246;31
2023/05/12 15:18:45;;;;;;;5.40;4.90;;;;;;;15.85;81.92;99050.91;7396388;39;21436;31
2023/05/12 15:24:02;;;;;;;6.45;4.70;;;;;;;15.83;82.93;99056.56;7357153;39;21308;31
2023/05/12 15:34:41;;;;;;;6.10;4.50;;;;;;;15.86;81.79;99049.88;7378341;39;20275;31
2023/05/12 15:45:22;;;;;;;6.00;5.00;;;;;;;15.88;82.72;99045.94;7512806;38;21094;31
2023/05/12 15:50:56;;;;;;;6.77;5.10;;;;;;;15.87;82.41;99048.84;7492063;38;20996;31
2023/05/12 15:56:12;;;;;;;7.80;5.30;;;;;;;15.97;81.76;99041.16;7510085;38;20294;31
2023/05/12 16:01:48;;;;;;;5.70;4.93;;;;;;;15.97;82.20;99041.16;7491064;38;21017;31
2023/05/12 16:07:19;;;;;;;5.87;4.97;;;;;;;15.99;82.44;99031.72;7440295;39;20258;31
2023/05/12 16:12:36;;;;;;;7.85;4.60;;;;;;;16.15;82.04;99033.22;7442792;39;20250;31
2023/05/12 16:17:56;;;;;;;4.90;4.40;;;;;;;16.24;81.52;99040.97;7442620;39;21123;31
2023/05/12 16:23:30;;;;;;;6.17;4.23;;;;;;;16.19;80.81;99035.31;7439656;39;21312;31
2023/05/12 16:28:47;;;;;;;5.50;4.63;;;;;;;16.09;81.83;99036.78;7478544;39;21205;31
2023/05/12 16:34:20;;;;;;;5.03;4.30;;;;;;;16.10;82.11;99033.84;7482464;39;21487;31
2023/05/12 16:39:56;;;;;;;5.73;4.13;;;;;;;16.02;81.86;99031.31;7410901;39;21134;31
2023/05/12 16:45:13;;;;;;;5.23;4.00;;;;;;;16.01;81.69;99043.25;7420679;39;21293;31
2023/05/12 16:50:46;;;;;;;4.43;3.53;;;;;;;15.94;81.69;99039.66;7354640;39;21209;31
2023/05/12 16:56:23;;;;;;;3.50;3.00;;;;;;;15.93;81.02;99039.88;7332465;39;21330;31
2023/05/12 17:01:39;;;;;;;4.10;3.40;;;;;;;15.92;80.70;99057.22;7338336;39;21278;31
2023/05/12 17:12:19;;;;;;;3.25;2.00;;;;;;;15.82;79.18;99063.03;7445300;38;20362;31
2023/05/12 17:17:37;;;;;;;2.40;2.00;;;;;;;15.83;78.18;99063.87;7421237;39;20238;31
2023/05/12 17:23:10;;;;;;;2.60;2.17;;;;;;;15.70;78.18;99073.66;7442218;39;20393;31
2023/05/12 17:28:46;;;;;;;2.30;2.10;;;;;;;15.70;78.82;99075.53;7383685;39;20248;31
2023/05/12 17:34:18;;;;;;;3.50;1.90;;;;;;;15.67;78.53;99075.94;7384824;39;21522;31
2023/05/12 17:39:40;;;;;;;2.20;2.00;;;;;;;15.57;78.24;99078.19;7359674;39;21215;31
2023/05/12 17:45:12;;;;;;;2.30;2.10;;;;;;;15.50;78.28;99077.28;7380754;39;20267;31
2023/05/12 17:50:30;;;;;;;3.07;1.80;;;;;;;15.44;79.13;99087.09;7425582;39;21303;31
2023/05/12 17:56:05;;;;;;;2.50;2.00;;;;;;;15.32;78.01;99069.66;7469721;38;20323;31
2023/05/12 18:01:38;;;;;;;2.00;1.77;;;;;;;15.30;78.18;99091.59;7420916;39;21316;31
2023/05/12 18:06:56;;;;;;;2.15;1.80;;;;;;;15.34;78.64;99097.47;7429268;39;20274;31
2023/05/12 18:12:27;;;;;;;2.20;2.00;;;;;;;15.26;79.00;99100.34;7445901;39;20312;31
2023/05/12 18:18:00;;;;;;;2.20;2.00;;;;;;;15.29;79.43;99106.22;7401657;39;21293;31
2023/05/12 18:23:32;;;;;;;2.73;1.80;;;;;;;15.24;80.04;99102.41;7378081;39;20244;31
2023/05/12 18:28:50;;;;;;;2.85;1.90;;;;;;;15.23;79.27;99106.16;7359010;39;20244;31
2023/05/12 18:34:23;;;;;;;2.00;1.80;;;;;;;15.15;79.87;99104.44;7334236;39;21191;31
2023/05/12 18:39:57;;;;;;;2.10;1.90;;;;;;;15.17;79.50;99107.81;7132881;39;20239;31
2023/05/12 18:45:18;;;;;;;4.37;1.87;;;;;;;15.19;80.22;99113.03;7324587;39;21261;31
2023/05/12 18:50:50;;;;;;;1.70;1.60;;;;;;;15.19;79.88;99110.31;7383987;39;20238;31
2023/05/12 18:56:11;;;;;;;2.30;1.90;;;;;;;15.19;80.34;99118.44;7378346;39;20239;31
2023/05/12 19:01:43;;;;;;;2.10;1.85;;;;;;;15.12;81.29;99121.12;7403435;39;20269;31
2023/05/12 19:07:16;;;;;;;3.17;1.80;;;;;;;15.08;81.37;99129.88;7400944;39;22070;31
2023/05/12 19:17:41;;;;;;;2.10;1.90;;;;;;;15.08;81.44;99147.00;7377162;39;20263;31
2023/05/12 19:28:16;;;;;;;2.20;2.00;;;;;;;14.94;81.44;99152.50;7469608;38;20361;31
2023/05/12 19:33:34;;;;;;;2.80;1.80;;;;;;;14.97;81.20;99157.53;7402232;39;20250;31
2023/05/12 19:38:52;;;;;;;1.70;1.60;;;;;;;14.96;81.96;99164.84;7419371;39;21308;31
2023/05/12 19:49:29;;;;;;;2.20;1.80;;;;;;;14.88;81.50;99173.13;7453743;39;20414;31
2023/05/12 20:00:04;;;;;;;2.43;1.90;;;;;;;14.76;82.20;99183.66;7421527;39;20281;31
2023/05/12 20:05:37;;;;;;;2.67;1.80;;;;;;;14.63;82.10;99179.97;7339712;39;20377;31
2023/05/12 20:10:58;;;;;;;1.90;1.70;;;;;;;14.59;81.84;99178.69;7435072;39;20281;31
2023/05/12 20:16:16;;;;;;;2.45;1.90;;;;;;;14.58;81.69;99198.69;7419025;39;20439;31
2023/05/12 20:21:52;;;;;;;1.90;1.70;;;;;;;14.41;82.09;99189.94;7422082;39;21254;31
2023/05/12 20:27:13;;;;;;;2.20;1.60;;;;;;;14.41;81.24;99198.94;7398863;39;21187;31
2023/05/12 20:32:34;;;;;;;1.70;1.60;;;;;;;14.36;81.32;99206.78;7383886;39;21260;31
2023/05/12 20:38:10;;;;;;;2.37;1.70;;;;;;;14.36;81.21;99208.66;7406433;39;20469;31
2023/05/12 20:43:30;;;;;;;2.63;1.90;;;;;;;14.27;80.70;99213.31;7438258;39;21097;31
2023/05/12 20:48:51;;;;;;;2.55;1.90;;;;;;;14.30;81.26;99222.97;7485226;39;20260;31
2023/05/12 20:54:28;;;;;;;2.10;1.73;;;;;;;14.25;80.88;99209.97;7465283;39;20269;31
2023/05/12 20:59:51;;;;;;;2.73;1.73;;;;;;;14.19;80.94;99215.31;7450710;39;21110;31
2023/05/12 21:05:21;;;;;;;2.10;1.80;;;;;;;14.12;80.98;99211.69;7403161;39;20345;31
2023/05/12 21:10:55;;;;;;;2.43;1.60;;;;;;;14.06;81.20;99221.41;7382230;39;20264;31
2023/05/12 21:16:27;;;;;;;1.70;1.60;;;;;;;14.10;81.26;99225.41;7358191;39;20278;31
2023/05/12 21:21:47;;;;;;;1.60;1.50;;;;;;;14.12;81.09;99230.66;7346829;39;20252;31
2023/05/12 21:27:22;;;;;;;1.60;1.40;;;;;;;14.05;81.05;99227.84;7409051;39;20328;31
2023/05/12 21:32:57;;;;;;;1.70;1.60;;;;;;;14.07;80.43;99235.78;7409139;39;20258;31
2023/05/12 21:38:32;;;;;;;4.53;1.80;;;;;;;14.11;81.03;99237.94;7378606;39;20243;31
2023/05/12 21:44:03;;;;;;;3.43;1.67;;;;;;;14.03;81.08;99238.03;7370162;39;20257;31
2023/05/12 21:49:23;;;;;;;2.55;1.70;;;;;;;14.04;81.53;99238.87;7358592;39;20390;31
2023/05/12 21:54:43;;;;;;;2.47;1.73;;;;;;;13.97;81.65;99249.62;7337839;39;20381;31
2023/05/12 22:00:20;;;;;;;2.07;1.87;;;;;;;13.94;81.16;99241.88;7390220;39;20250;31
2023/05/12 22:05:55;;;;;;;2.10;1.80;;;;;;;13.93;80.98;99248.31;7389194;39;20400;31
2023/05/12 22:11:30;;;;;;;2.20;1.90;;;;;;;13.91;80.95;99244.94;7387568;39;21111;31
2023/05/12 22:17:06;;;;;;;2.03;1.83;;;;;;;13.83;80.77;99254.00;7379399;39;20331;31
2023/05/12 22:22:26;;;;;;;2.57;1.80;;;;;;;13.80;81.23;99256.25;7369295;39;20279;31
2023/05/12 22:27:58;;;;;;;3.25;1.80;;;;;;;13.79;82.00;99259.97;7396027;39;20245;31
2023/05/12 22:33:35;;;;;;;2.55;1.60;;;;;;;13.78;81.34;99261.84;7399754;39;20239;31
2023/05/12 22:38:52;;;;;;;1.90;1.70;;;;;;;13.92;81.26;99266.44;7385414;39;20282;31
2023/05/12 22:44:27;;;;;;;4.10;2.20;;;;;;;13.93;80.82;99261.87;7442671;39;20254;31
2023/05/12 22:50:01;;;;;;;4.00;2.20;;;;;;;13.93;80.48;99267.28;7422552;39;21262;31
2023/05/12 22:55:37;;;;;;;1.93;1.77;;;;;;;13.91;80.26;99266.63;7447122;39;20374;31
2023/05/12 23:01:12;;;;;;;2.70;2.15;;;;;;;13.87;79.97;99260.72;7386620;39;20360;31
2023/05/12 23:06:49;;;;;;;2.90;1.90;;;;;;;13.80;79.87;99262.50;7442572;39;20254;31
2023/05/12 23:12:08;;;;;;;3.03;2.00;;;;;;;13.82;80.07;99267.75;7422633;39;21248;31
2023/05/12 23:22:48;;;;;;;2.25;1.95;;;;;;;13.72;79.34;99253.63;7418219;39;20275;31
2023/05/12 23:28:23;;;;;;;2.30;2.05;;;;;;;13.72;79.70;99251.78;7379397;39;20341;31
2023/05/12 23:33:59;;;;;;;2.25;2.05;;;;;;;13.71;79.49;99239.25;7402778;39;20247;31
2023/05/12 23:39:33;;;;;;;2.17;1.80;;;;;;;13.79;79.04;99241.00;7366108;39;20318;31
2023/05/12 23:44:51;;;;;;;4.40;2.00;;;;;;;13.77;79.37;99245.78;7441288;39;21337;31
2023/05/12 23:50:08;;;;;;;4.05;2.20;;;;;;;13.71;79.23;99236.53;7443220;39;20238;31
2023/05/12 23:55:45;;;;;;;3.30;2.23;;;;;;;13.62;78.91;99234.09;7451894;39;20290;31
